Airfield :
LOGIN :

Register | Disclaimer

   EN    FR    IT 

 










Legend :    VFR   Marginal VFR   IFR   Intensive IFR   Very Intensive IFR
Visi :
Ceiling :
>= 8 km
>= 3000ft
5 to 8 km
1000 to 3000 ft
1500m to 5 km
500 to 1000 ft
800 to 1500m
200 to 500 ft
< 800m
< 200 ft
Symbols :   Thunderstorms  Fog  Heavy snow  Heavy precipitations  Wind > 20 kt
SIGMETs :     Misc.  Thunderstorms  Icing  Turbulence  Mountain Waves  Volcanic Ashes







- Airport Elevation : 39 ft
- IATA code : CTA


LICC - Catania Fontanarossa

CURRENT METAR :
  • 230520Z 26005KT CAVOK 06/03 Q1021

EXPIRED METARs :
  • 230450Z 23006KT 200V260 CAVOK 06/03 Q1020
  • 230420Z 23005KT CAVOK 05/02 Q1020
  • 230350Z 26008KT CAVOK 06/02 Q1020
  • 230320Z 26007KT CAVOK 06/02 Q1020
  • 230250Z 25005KT CAVOK 06/02 Q1020
  • 230220Z 26005KT CAVOK 07/03 Q1020

TAF TAF LICC
Valid from the 23 at 00:00 until the 24 at 00:00 UTC


222300Z 2300/2324 26007KT 9999 SCT030
BECMG 2310/2312 10012KT
BECMG 2316/2318 VRB05KT
No reported NOTAMs for that airfield.



MET'MAP, your aeronautical weather chart ! - Copyright ORBIFLY December 2007 - Disclaimer

ORBIFLY MET'MAP TEAM :

Programming & Development : Alexandra Zaïnal
Concept & Development : Baudouin d'Aumeries
Co-Development & Prog : Marc-Olivier Méhu
Technical & hardware support : Manuel Goepfert

Contact : metmap@orbifly.com




SOURCES & CREDITS :

   NOAA